Koyo Maru No.12 — JD2089 — position and weather

sailwx.info

Track history (hours):
 
Tides and Currents Weather Stations Pressure Air Temp Water Temp Dewpoint Dewpoint Depression Visibility Wind Speed Wind Dir Waves Ship Positions

Koyo Maru No.12

Last reported at 2017-Oct-17 02:41 UTC. Time now 2017-Oct-17 11:15 UTC.
Position N 34°59' E 139°25'.

Length 65 m; draft 4.5 m.

Type: Tanker. MMSI: 431402014.

Date/timePositionNaut miles runAvg speedWind from/ knotsBaromVisibWave heightAir tempDewpointWater temp
2017-Oct-17 02:41N 34°59' E 139°25'2 9.0
2017-Oct-17 02:29N 34°60' E 139°27'5 9.6
2017-Oct-17 02:00N 35°02' E 139°32'611.1
2017-Oct-17 01:29N 35°05' E 139°38'511.1
2017-Oct-17 01:00N 35°08' E 139°43'510.6
2017-Oct-17 00:30N 35°13' E 139°46'611.4
2017-Oct-17 00:00N 35°18' E 139°44'510.8
2017-Oct-16 23:30N 35°24' E 139°43'612.0
2017-Oct-16 23:00N 35°28' E 139°48'811.5
2017-Oct-16 22:16N 35°35' E 139°53'0 0.6
2017-Oct-16 22:00N 35°35' E 139°53'0 0.0
2017-Oct-16 21:30N 35°35' E 139°53'0 0.0
2017-Oct-16 21:00N 35°35' E 139°53'0 0.0
2017-Oct-16 20:30N 35°35' E 139°53'0 0.0
2017-Oct-16 20:00N 35°35' E 139°53'0 0.0
2017-Oct-16 19:30N 35°35' E 139°53'0 0.0
2017-Oct-16 19:00N 35°35' E 139°53'0 0.0
2017-Oct-16 18:30N 35°35' E 139°53'0 0.0
2017-Oct-16 18:00N 35°35' E 139°53'0 0.0
2017-Oct-16 17:30N 35°35' E 139°53'0 0.0
2017-Oct-16 17:00N 35°35' E 139°53'0 0.0
2017-Oct-16 16:30N 35°35' E 139°53'0 0.0
2017-Oct-16 16:00N 35°35' E 139°53'0 0.0
2017-Oct-16 15:30N 35°35' E 139°53'0 0.0
2017-Oct-16 15:00N 35°35' E 139°53'0 0.0
2017-Oct-16 14:30N 35°35' E 139°53'0 0.0
2017-Oct-16 13:30N 35°35' E 139°53'0 0.0
2017-Oct-16 13:00N 35°35' E 139°53'0 0.0
2017-Oct-16 12:30N 35°35' E 139°53'0 0.0
2017-Oct-16 12:00N 35°35' E 139°53'0 0.1
2017-Oct-16 11:30N 35°35' E 139°53'0 0.0
2017-Oct-16 11:00N 35°35' E 139°53'0 0.0
2017-Oct-16 10:30N 35°35' E 139°53'0 0.0
2017-Oct-16 10:00N 35°35' E 139°53'0 0.0
2017-Oct-16 09:30N 35°35' E 139°53'3 5.2
2017-Oct-16 08:58N 35°32' E 139°54'3 0.6
2017-Oct-16 03:43N 35°31' E 139°58'210.4
2017-Oct-16 03:30N 35°31' E 139°55'510.7
2017-Oct-16 03:00N 35°30' E 139°49'3 5.1
2017-Oct-16 02:24N 35°32' E 139°45'0 0.0
2017-Oct-16 02:00N 35°32' E 139°45'0 0.0
2017-Oct-16 01:30N 35°32' E 139°45'0 0.0
2017-Oct-16 01:00N 35°32' E 139°45'0 0.0
2017-Oct-16 00:30N 35°32' E 139°45'0 0.0
2017-Oct-15 23:59N 35°32' E 139°45'0 0.0
2017-Oct-15 23:29N 35°32' E 139°45'0 0.0
2017-Oct-15 23:00N 35°32' E 139°45'1 3.0
2017-Oct-15 22:31N 35°30' E 139°45'0 0.2
2017-Oct-15 22:00N 35°30' E 139°45'0 0.0
2017-Oct-15 21:30N 35°30' E 139°45'0 0.0
2017-Oct-15 21:00N 35°30' E 139°45'0 0.0
2017-Oct-15 20:30N 35°30' E 139°45'0 0.0
2017-Oct-15 20:00N 35°30' E 139°45'0 0.0
2017-Oct-15 19:30N 35°30' E 139°45'0 0.0
2017-Oct-15 19:00N 35°30' E 139°45'0 0.0
2017-Oct-15 18:30N 35°30' E 139°45'0 0.0
2017-Oct-15 18:00N 35°30' E 139°45'0 0.0
2017-Oct-15 17:30N 35°30' E 139°45'0 0.0
2017-Oct-15 17:00N 35°30' E 139°45'0 0.0
2017-Oct-15 16:30N 35°30' E 139°45'0 0.0
2017-Oct-15 16:00N 35°30' E 139°45'0 0.0
2017-Oct-15 15:30N 35°30' E 139°45'0 0.0
2017-Oct-15 15:00N 35°30' E 139°45'0 0.0
2017-Oct-15 14:00N 35°30' E 139°45'0 0.0
2017-Oct-15 13:30N 35°30' E 139°45'0 0.0
2017-Oct-15 13:00N 35°30' E 139°45'0 0.0
2017-Oct-15 12:30N 35°30' E 139°45'0 0.0
2017-Oct-15 12:00N 35°30' E 139°45'0 0.0
2017-Oct-15 11:30N 35°30' E 139°45'0 0.0
2017-Oct-15 11:00N 35°30' E 139°45'0 0.0
2017-Oct-15 10:30N 35°30' E 139°45'0 0.0
2017-Oct-15 10:00N 35°30' E 139°45'0 0.0
2017-Oct-15 09:30N 35°30' E 139°45'0 0.0
2017-Oct-15 09:00N 35°30' E 139°45'0 0.0
2017-Oct-15 08:30N 35°30' E 139°45'0 0.0
2017-Oct-15 08:00N 35°30' E 139°45'0 0.0
2017-Oct-15 07:30N 35°30' E 139°45'0 0.0
2017-Oct-15 07:00N 35°30' E 139°45'0 0.0
2017-Oct-15 06:30N 35°30' E 139°45'3 6.2
2017-Oct-15 06:00N 35°29' E 139°49'3 6.9
2017-Oct-15 05:30N 35°31' E 139°46'0 0.9
2017-Oct-15 05:00N 35°32' E 139°45'0 0.0
2017-Oct-15 04:30N 35°32' E 139°45'0 0.0
2017-Oct-15 04:00N 35°32' E 139°45'0 0.0
2017-Oct-15 03:30N 35°32' E 139°45'0 0.0
2017-Oct-15 03:00N 35°32' E 139°45'0 0.0
2017-Oct-15 02:30N 35°32' E 139°45'0 0.0
2017-Oct-15 02:00N 35°32' E 139°45'0 0.0
2017-Oct-15 01:30N 35°32' E 139°45'0 0.0
2017-Oct-15 01:00N 35°32' E 139°45'0 0.0
2017-Oct-15 00:30N 35°32' E 139°45'0 0.0
2017-Oct-15 00:00N 35°32' E 139°45'0 0.2
2017-Oct-14 23:30N 35°32' E 139°45'1 2.7
2017-Oct-14 23:00N 35°31' E 139°46'3 5.1
2017-Oct-14 22:30N 35°29' E 139°48'0 0.0
2017-Oct-14 22:00N 35°29' E 139°48'0 0.0
2017-Oct-14 21:30N 35°29' E 139°48'0 0.0
2017-Oct-14 21:00N 35°29' E 139°48'0 0.0
2017-Oct-14 20:30N 35°29' E 139°48'1 2.1
2017-Oct-14 20:00N 35°28' E 139°48'5 9.5
2017-Oct-14 19:30N 35°23' E 139°46'5 9.6
2017-Oct-14 19:00N 35°19' E 139°44'4 8.9
2017-Oct-14 18:30N 35°15' E 139°47'5 9.1
2017-Oct-14 18:00N 35°10' E 139°47'5 9.2
2017-Oct-14 17:30N 35°06' E 139°44'510.8
2017-Oct-14 17:00N 35°03' E 139°39'611.1
2017-Oct-14 16:30N 34°60' E 139°34'  
2017-Oct-10 11:25N 34°58' E 139°25'410.0
2017-Oct-10 11:00N 35°01' E 139°29'5 9.9
2017-Oct-10 10:30N 35°03' E 139°34'510.4
2017-Oct-10 10:00N 35°06' E 139°39'510.1
2017-Oct-10 09:31N 35°10' E 139°44'510.1
2017-Oct-10 09:00N 35°14' E 139°46'5 9.8
2017-Oct-10 08:30N 35°19' E 139°43'5 9.3
2017-Oct-10 07:59N 35°24' E 139°43'5 9.5
2017-Oct-10 07:30N 35°27' E 139°47'510.0
2017-Oct-10 06:59N 35°30' E 139°52'510.3
2017-Oct-10 06:31N 35°30' E 139°58'2 0.3
2017-Oct-09 22:56N 35°29' E 140°01'3 6.4
2017-Oct-09 22:30N 35°29' E 139°57'3 0.1
2017-Oct-08 20:59N 35°30' E 140°00'0 0.0
2017-Oct-08 20:30N 35°30' E 140°00'0 0.0
2017-Oct-08 20:00N 35°30' E 140°00'0 0.0
2017-Oct-08 19:20N 35°30' E 140°00'0 0.0
2017-Oct-08 18:59N 35°30' E 140°00'0 0.0
2017-Oct-08 18:28N 35°30' E 140°00'0 0.0
2017-Oct-08 17:52N 35°30' E 140°00'0 0.0
2017-Oct-08 17:29N 35°30' E 140°00'0 0.0
2017-Oct-08 16:11N 35°30' E 140°00'0 0.0
2017-Oct-08 15:56N 35°30' E 140°00'2 4.0
2017-Oct-08 15:29N 35°30' E 139°58'510.8
2017-Oct-08 15:00N 35°28' E 139°52'511.0
2017-Oct-08 14:31N 35°25' E 139°47'510.6
2017-Oct-08 14:01N 35°20' E 139°44'510.0
2017-Oct-08 13:30N 35°15' E 139°47'510.2
2017-Oct-08 13:00N 35°10' E 139°46'611.4
2017-Oct-08 12:30N 35°06' E 139°42'611.6
2017-Oct-08 12:01N 35°02' E 139°36'  
Track history (hours):
 
Tides and Currents Weather Stations Pressure Air Temp Water Temp Dewpoint Dewpoint Depression Visibility Wind Speed Wind Dir Waves Ship Positions

Koyo Maru No.12

Last reported at 2017-Oct-17 02:41 UTC. Time now 2017-Oct-17 11:15 UTC.
Position N 34°59' E 139°25'.

Length 65 m; draft 4.5 m.

Type: Tanker. MMSI: 431402014.

Date/timePositionNaut miles runAvg speedWind from/ knotsBaromVisibWave heightAir tempDewpointWater temp
2017-Oct-17 02:41N 34°59' E 139°25'2 9.0
2017-Oct-17 02:29N 34°60' E 139°27'5 9.6
2017-Oct-17 02:00N 35°02' E 139°32'611.1
2017-Oct-17 01:29N 35°05' E 139°38'511.1
2017-Oct-17 01:00N 35°08' E 139°43'510.6
2017-Oct-17 00:30N 35°13' E 139°46'611.4
2017-Oct-17 00:00N 35°18' E 139°44'510.8
2017-Oct-16 23:30N 35°24' E 139°43'612.0
2017-Oct-16 23:00N 35°28' E 139°48'811.5
2017-Oct-16 22:16N 35°35' E 139°53'0 0.6
2017-Oct-16 22:00N 35°35' E 139°53'0 0.0
2017-Oct-16 21:30N 35°35' E 139°53'0 0.0
2017-Oct-16 21:00N 35°35' E 139°53'0 0.0
2017-Oct-16 20:30N 35°35' E 139°53'0 0.0
2017-Oct-16 20:00N 35°35' E 139°53'0 0.0
2017-Oct-16 19:30N 35°35' E 139°53'0 0.0
2017-Oct-16 19:00N 35°35' E 139°53'0 0.0
2017-Oct-16 18:30N 35°35' E 139°53'0 0.0
2017-Oct-16 18:00N 35°35' E 139°53'0 0.0
2017-Oct-16 17:30N 35°35' E 139°53'0 0.0
2017-Oct-16 17:00N 35°35' E 139°53'0 0.0
2017-Oct-16 16:30N 35°35' E 139°53'0 0.0
2017-Oct-16 16:00N 35°35' E 139°53'0 0.0
2017-Oct-16 15:30N 35°35' E 139°53'0 0.0
2017-Oct-16 15:00N 35°35' E 139°53'0 0.0
2017-Oct-16 14:30N 35°35' E 139°53'0 0.0
2017-Oct-16 13:30N 35°35' E 139°53'0 0.0
2017-Oct-16 13:00N 35°35' E 139°53'0 0.0
2017-Oct-16 12:30N 35°35' E 139°53'0 0.0
2017-Oct-16 12:00N 35°35' E 139°53'0 0.1
2017-Oct-16 11:30N 35°35' E 139°53'0 0.0
2017-Oct-16 11:00N 35°35' E 139°53'0 0.0
2017-Oct-16 10:30N 35°35' E 139°53'0 0.0
2017-Oct-16 10:00N 35°35' E 139°53'0 0.0
2017-Oct-16 09:30N 35°35' E 139°53'3 5.2
2017-Oct-16 08:58N 35°32' E 139°54'3 0.6
2017-Oct-16 03:43N 35°31' E 139°58'210.4
2017-Oct-16 03:30N 35°31' E 139°55'510.7
2017-Oct-16 03:00N 35°30' E 139°49'3 5.1
2017-Oct-16 02:24N 35°32' E 139°45'0 0.0
2017-Oct-16 02:00N 35°32' E 139°45'0 0.0
2017-Oct-16 01:30N 35°32' E 139°45'0 0.0
2017-Oct-16 01:00N 35°32' E 139°45'0 0.0
2017-Oct-16 00:30N 35°32' E 139°45'0 0.0
2017-Oct-15 23:59N 35°32' E 139°45'0 0.0
2017-Oct-15 23:29N 35°32' E 139°45'0 0.0
2017-Oct-15 23:00N 35°32' E 139°45'1 3.0
2017-Oct-15 22:31N 35°30' E 139°45'0 0.2
2017-Oct-15 22:00N 35°30' E 139°45'0 0.0
2017-Oct-15 21:30N 35°30' E 139°45'0 0.0
2017-Oct-15 21:00N 35°30' E 139°45'0 0.0
2017-Oct-15 20:30N 35°30' E 139°45'0 0.0
2017-Oct-15 20:00N 35°30' E 139°45'0 0.0
2017-Oct-15 19:30N 35°30' E 139°45'0 0.0
2017-Oct-15 19:00N 35°30' E 139°45'0 0.0
2017-Oct-15 18:30N 35°30' E 139°45'0 0.0
2017-Oct-15 18:00N 35°30' E 139°45'0 0.0
2017-Oct-15 17:30N 35°30' E 139°45'0 0.0
2017-Oct-15 17:00N 35°30' E 139°45'0 0.0
2017-Oct-15 16:30N 35°30' E 139°45'0 0.0
2017-Oct-15 16:00N 35°30' E 139°45'0 0.0
2017-Oct-15 15:30N 35°30' E 139°45'0 0.0
2017-Oct-15 15:00N 35°30' E 139°45'0 0.0
2017-Oct-15 14:00N 35°30' E 139°45'0 0.0
2017-Oct-15 13:30N 35°30' E 139°45'0 0.0
2017-Oct-15 13:00N 35°30' E 139°45'0 0.0
2017-Oct-15 12:30N 35°30' E 139°45'0 0.0
2017-Oct-15 12:00N 35°30' E 139°45'0 0.0
2017-Oct-15 11:30N 35°30' E 139°45'0 0.0
2017-Oct-15 11:00N 35°30' E 139°45'0 0.0
2017-Oct-15 10:30N 35°30' E 139°45'0 0.0
2017-Oct-15 10:00N 35°30' E 139°45'0 0.0
2017-Oct-15 09:30N 35°30' E 139°45'0 0.0
2017-Oct-15 09:00N 35°30' E 139°45'0 0.0
2017-Oct-15 08:30N 35°30' E 139°45'0 0.0
2017-Oct-15 08:00N 35°30' E 139°45'0 0.0
2017-Oct-15 07:30N 35°30' E 139°45'0 0.0
2017-Oct-15 07:00N 35°30' E 139°45'0 0.0
2017-Oct-15 06:30N 35°30' E 139°45'3 6.2
2017-Oct-15 06:00N 35°29' E 139°49'3 6.9
2017-Oct-15 05:30N 35°31' E 139°46'0 0.9
2017-Oct-15 05:00N 35°32' E 139°45'0 0.0
2017-Oct-15 04:30N 35°32' E 139°45'0 0.0
2017-Oct-15 04:00N 35°32' E 139°45'0 0.0
2017-Oct-15 03:30N 35°32' E 139°45'0 0.0
2017-Oct-15 03:00N 35°32' E 139°45'0 0.0
2017-Oct-15 02:30N 35°32' E 139°45'0 0.0
2017-Oct-15 02:00N 35°32' E 139°45'0 0.0
2017-Oct-15 01:30N 35°32' E 139°45'0 0.0
2017-Oct-15 01:00N 35°32' E 139°45'0 0.0
2017-Oct-15 00:30N 35°32' E 139°45'0 0.0
2017-Oct-15 00:00N 35°32' E 139°45'0 0.2
2017-Oct-14 23:30N 35°32' E 139°45'1 2.7
2017-Oct-14 23:00N 35°31' E 139°46'3 5.1
2017-Oct-14 22:30N 35°29' E 139°48'0 0.0
2017-Oct-14 22:00N 35°29' E 139°48'0 0.0
2017-Oct-14 21:30N 35°29' E 139°48'0 0.0
2017-Oct-14 21:00N 35°29' E 139°48'0 0.0
2017-Oct-14 20:30N 35°29' E 139°48'1 2.1
2017-Oct-14 20:00N 35°28' E 139°48'5 9.5
2017-Oct-14 19:30N 35°23' E 139°46'5 9.6
2017-Oct-14 19:00N 35°19' E 139°44'4 8.9
2017-Oct-14 18:30N 35°15' E 139°47'5 9.1
2017-Oct-14 18:00N 35°10' E 139°47'5 9.2
2017-Oct-14 17:30N 35°06' E 139°44'510.8
2017-Oct-14 17:00N 35°03' E 139°39'611.1
2017-Oct-14 16:30N 34°60' E 139°34'  
2017-Oct-10 11:25N 34°58' E 139°25'410.0
2017-Oct-10 11:00N 35°01' E 139°29'5 9.9
2017-Oct-10 10:30N 35°03' E 139°34'510.4
2017-Oct-10 10:00N 35°06' E 139°39'510.1
2017-Oct-10 09:31N 35°10' E 139°44'510.1
2017-Oct-10 09:00N 35°14' E 139°46'5 9.8
2017-Oct-10 08:30N 35°19' E 139°43'5 9.3
2017-Oct-10 07:59N 35°24' E 139°43'5 9.5
2017-Oct-10 07:30N 35°27' E 139°47'510.0
2017-Oct-10 06:59N 35°30' E 139°52'510.3
2017-Oct-10 06:31N 35°30' E 139°58'2 0.3
2017-Oct-09 22:56N 35°29' E 140°01'3 6.4
2017-Oct-09 22:30N 35°29' E 139°57'3 0.1
2017-Oct-08 20:59N 35°30' E 140°00'0 0.0
2017-Oct-08 20:30N 35°30' E 140°00'0 0.0
2017-Oct-08 20:00N 35°30' E 140°00'0 0.0
2017-Oct-08 19:20N 35°30' E 140°00'0 0.0
2017-Oct-08 18:59N 35°30' E 140°00'0 0.0
2017-Oct-08 18:28N 35°30' E 140°00'0 0.0
2017-Oct-08 17:52N 35°30' E 140°00'0 0.0
2017-Oct-08 17:29N 35°30' E 140°00'0 0.0
2017-Oct-08 16:11N 35°30' E 140°00'0 0.0
2017-Oct-08 15:56N 35°30' E 140°00'2 4.0
2017-Oct-08 15:29N 35°30' E 139°58'510.8
2017-Oct-08 15:00N 35°28' E 139°52'511.0
2017-Oct-08 14:31N 35°25' E 139°47'510.6
2017-Oct-08 14:01N 35°20' E 139°44'510.0
2017-Oct-08 13:30N 35°15' E 139°47'510.2
2017-Oct-08 13:00N 35°10' E 139°46'611.4
2017-Oct-08 12:30N 35°06' E 139°42'611.6
2017-Oct-08 12:01N 35°02' E 139°36'  

Dump ship's entire track history